Flight Track Log - Related Links

Times and Time Zones

All times are in EST time to prevent confusion due to time zone crossing. See the EJA941 flight status page for this flight to view local times or setup timezone preferences in your user account.

Time Position Orientation Groundspeed Altitude Reporting Facility
EST Latitude Longitude Course Direction KTS MPH feet Rate Location/Type
Tue 09:36:09 AM 42.4097 -96.4269 270° West 171 197 4,200  Level Minneapolis Center
Tue 09:37:10 AM 42.4106 -96.5050 271° West 210 242 9,400 4,918 Climbing Minneapolis Center
Tue 09:38:11 AM 42.4142 -96.6139 273° West 233 268 14,200 3,463 Climbing Minneapolis Center
Tue 09:39:13 AM 42.4197 -96.7375 274° West 309 356 16,500 2,293 Climbing Minneapolis Center
Tue 09:40:14 AM 42.4186 -96.8811 269° West 367 422 18,900 2,244 Climbing Minneapolis Center
Tue 09:41:00 AM 42.2388 -97.1620 270° West  Level Estimated
Tue 09:41:16 AM 42.3886 -97.0250 254° West 393 452 21,100  Level Minneapolis Center
Tue 09:42:17 AM 42.3575 -97.1708 254° West 401 461 22,500 1,268 Climbing Minneapolis Center
Tue 09:43:19 AM 42.3239 -97.3242 254° West 419 482 23,700 1,268 Climbing Minneapolis Center
Tue 09:44:20 AM 42.2892 -97.4833 254° West 436 502 25,100 1,268 Climbing Minneapolis Center
Tue 09:45:22 AM 42.2539 -97.6481 254° West 452 520 26,300 1,317 Climbing Minneapolis Center
Tue 09:46:23 AM 42.2117 -97.8369 253° West 461 531 27,800 1,377 Climbing Minneapolis Center
Tue 09:47:24 AM 42.1744 -98.0036 253° West 465 535 29,100 1,268 Climbing Minneapolis Center
Tue 09:48:26 AM 42.1372 -98.1725 253° West 470 541 30,400 1,268 Climbing Minneapolis Center
Tue 09:49:27 AM 42.0981 -98.3469 253° West 484 557 31,700 1,268 Climbing Minneapolis Center
Tue 09:50:29 AM 42.0569 -98.5231 253° West 491 565 33,000 1,220 Climbing Minneapolis Center
Tue 09:51:30 AM 42.0169 -98.6983 253° West 493 567 34,200 1,366 Climbing Minneapolis Center
Tue 09:52:32 AM 41.9689 -98.9083 253° West 493 567 35,800 1,403 Climbing Minneapolis Center
Tue 09:53:34 AM 41.9297 -99.0800 253° West 486 559 37,100 1,268 Climbing Minneapolis Center
Tue 09:54:35 AM 41.8892 -99.2494 252° West 481 554 38,400 1,220 Climbing Minneapolis Center
Tue 09:55:37 AM 41.8500 -99.4172 253° West 476 548 39,600 780 Climbing Minneapolis Center
Tue 09:56:38 AM 41.8103 -99.5839 252° West 472 543 40,000 195 Climbing Minneapolis Center
Tue 09:57:40 AM 41.7558 -99.7542 247° West 500 575 40,000  Level Minneapolis Center
Tue 09:58:41 AM 41.7039 -99.9233 248° West 496 571 40,000  Level Minneapolis Center
Tue 09:59:43 AM 41.6389 -100.1283 247° West 498 573 40,000  Level Minneapolis Center
Tue 10:00:44 AM 41.5842 -100.2997 247° West 501 577 40,000  Level Minneapolis Center
Tue 10:02:11 AM 41.5039 -100.5472 247° West 500 575 40,000  Level Denver Center
Tue 10:03:12 AM 41.4508 -100.7089 246° West 500 575 40,000  Level Denver Center
Tue 10:04:13 AM 41.3897 -100.8978 247° West 500 575 40,000  Level Denver Center
Tue 10:05:15 AM 41.3369 -101.0617 247° West 505 581 40,000  Level Denver Center
Tue 10:06:16 AM 41.2822 -101.2233 246° West 504 580 40,000  Level Denver Center
Tue 10:07:17 AM 41.2203 -101.4125 247° West 503 579 40,000  Level Denver Center
Tue 10:08:19 AM 41.1667 -101.5742 246° West 503 579 40,000  Level Denver Center
Tue 10:09:20 AM 41.1039 -101.7608 246° West 498 573 40,000  Level Denver Center
Tue 10:10:21 AM 41.0506 -101.9208 246° West 499 574 40,000  Level Denver Center
Tue 10:11:23 AM 40.9947 -102.0808 245° Southwest 501 577 40,000  Level Denver Center
Tue 10:12:24 AM 40.9303 -102.2678 246° West 501 577 40,000  Level Denver Center
Tue 10:13:25 AM 40.8764 -102.4267 246° West 498 573 40,000  Level Denver Center
Tue 10:14:27 AM 40.8119 -102.6122 245° Southwest 498 573 40,000  Level Denver Center
Tue 10:15:28 AM 40.7569 -102.7717 246° West 500 575 40,000  Level Denver Center
Tue 10:16:29 AM 40.7106 -102.9050 245° Southwest 502 578 40,000  Level Denver Center
Tue 10:17:31 AM 40.6364 -103.1178 245° Southwest 502 578 40,000 -146 Level Denver Center
Tue 10:18:32 AM 40.5878 -103.2500 244° Southwest 503 579 39,700 -1,268 Descending Denver Center
Tue 10:19:34 AM 40.5172 -103.4503 245° Southwest 506 582 37,400 -1,867 Descending Denver Center
Tue 10:20:47 AM 40.4550 -103.6233 245° Southwest 522 601 35,500 -1,867 Descending Denver Center
Tue 10:21:49 AM 40.3811 -103.8264 245° Southwest 517 595 33,200 -1,694 Descending Denver Center
Tue 10:22:51 AM 40.3058 -104.0336 245° Southwest 524 603 32,000 -585 Descending Denver Center
Tue 10:23:52 AM 40.2403 -104.2128 244° Southwest 540 621 32,000  Level Denver Center
Tue 10:24:54 AM 40.1733 -104.3939 244° Southwest 552 635 32,000 -387 Level Denver Center
Tue 10:25:56 AM 40.1069 -104.5739 244° Southwest 554 638 31,200 -1,024 Descending Denver Center
Tue 10:26:57 AM 40.0514 -104.7536 248° West 543 625 29,900 -1,268 Descending Denver Center
Tue 10:27:59 AM 40.0328 -104.9303 262° West 504 580 28,600 -919 Descending Denver Center
Tue 10:29:01 AM 40.0294 -105.1383 269° West 485 558 28,000 -293 Descending Denver Center
Tue 10:30:02 AM 40.0264 -105.2781 268° West 484 557 28,000 -49 Level Denver Center
Tue 10:31:04 AM 40.0228 -105.4878 269° West 485 558 27,900 -1,113 Descending Denver Center
Tue 10:32:06 AM 40.0203 -105.6583 269° West 478 550 25,700 -2,195 Descending Denver Center
Tue 10:33:07 AM 40.0158 -105.8200 268° West 455 524 23,400 -2,244 Descending Denver Center
Tue 10:34:09 AM 40.0136 -105.9750 269° West 431 496 21,100 -2,468 Descending Denver Center
Tue 10:35:11 AM 40.0083 -106.1422 268° West 384 442 18,300 -2,613 Descending Denver Center
Tue 10:36:13 AM 40.0081 -106.2436 270° West 360 414 15,700 -2,081 Descending Denver Center
Tue 10:37:15 AM 40.0053 -106.3806 269° West 336 387 14,000 -823 Descending Denver Center
Tue 10:38:17 AM 39.9750 -106.4550 242° Southwest 288 331 14,000  Level Denver Center
Tue 10:39:18 AM 39.8942 -106.4878 197° South 295 339 14,000  Level Denver Center
Tue 10:40:20 AM 39.8119 -106.5214 197° South 303 349 14,000 -97 Level Denver Center
Tue 10:41:22 AM 39.7286 -106.5561 198° South 309 356 13,800 -919 Descending Denver Center
Tue 10:42:24 AM 39.6850 -106.6283 232° Southwest 286 329 12,100 -1,645 Descending Denver Center
Tue 10:43:26 AM 39.6733 -106.7114 260° West 255 293 10,400 -1,500 Descending Denver Center
Tue 10:44:28 AM 39.6622 -106.7817 258° West 198 228 9,000 -1,258 Descending Denver Center
Tue 10:45:30 AM 39.6536 -106.8339 258° West 161 185 7,800 -968 Descending Denver Center
Tue 10:46:32 AM 39.6456 -106.8842 258° West 149 171 7,000 -387 Descending Denver Center
Tue 10:47:34 AM 39.6400 -106.9319 261° West 146 168 7,000  Level Denver Center

Login

Don't have an account? Register now (free) for customized features, flight alerts, and more!